Time;durP1;ratioP1;P1;durP2;ratioP2;P2;SDS_P1;SDS_P2;PMS_P1;PMS_P2;Temp;Humidity;BMP_temperature;BMP_pressure;BME280_temperature;BME280_humidity;BME280_pressure;Samples;Min_cycle;Max_cycle;Signal;HPM_P1;HPM_P2
2021/09/22 00:03:51;;;;;;;2.67;0.60;;;18.50;44.70;;;;;;20898337;28;81813;-72
2021/09/22 00:13:54;;;;;;;1.00;0.50;;;18.60;44.60;;;;;;20896870;28;81477;-71
2021/09/22 00:23:55;;;;;;;3.83;0.50;;;18.60;44.50;;;;;;20896028;28;80783;-72
2021/09/22 00:33:57;;;;;;;2.77;0.40;;;18.50;45.00;;;;;;20876920;28;80883;-71
2021/09/22 00:43:59;;;;;;;1.55;0.30;;;18.40;45.70;;;;;;20894357;27;81692;-71
2021/09/22 00:54:01;;;;;;;4.37;0.30;;;18.40;45.90;;;;;;20892787;28;81273;-72
2021/09/22 01:04:04;;;;;;;4.82;0.57;;;18.30;46.30;;;;;;20893962;28;81878;-71
2021/09/22 01:14:08;;;;;;;2.50;0.60;;;18.20;46.80;;;;;;20893154;28;81750;-71
2021/09/22 01:24:10;;;;;;;;;;;18.00;47.50;;;;;;20892611;28;80910;-71
2021/09/22 01:34:14;;;;;;;2.22;0.77;;;17.90;48.10;;;;;;20896126;28;81069;-73
2021/09/22 01:44:17;;;;;;;2.80;0.60;;;17.70;51.40;;;;;;20891514;28;79890;-72
2021/09/22 01:54:20;;;;;;;3.30;0.40;;;17.50;51.40;;;;;;20890727;28;80516;-72
2021/09/22 02:04:23;;;;;;;2.38;0.65;;;17.60;51.10;;;;;;20888910;27;81021;-72
2021/09/22 02:14:27;;;;;;;2.30;0.77;;;17.60;51.00;;;;;;20871938;28;80759;-71
2021/09/22 02:24:30;;;;;;;1.40;0.63;;;17.50;51.50;;;;;;20887934;28;80683;-71
2021/09/22 02:34:51;;;;;;;1.73;0.50;;;17.40;51.50;;;;;;20874495;28;83639;-72
2021/09/22 02:44:58;;;;;;;2.08;0.50;;;17.20;52.10;;;;;;20887414;28;82026;-71
2021/09/22 02:55:02;;;;;;;2.50;0.60;;;17.10;52.30;;;;;;20885875;28;80050;-70
2021/09/22 03:05:07;;;;;;;2.45;0.77;;;17.00;52.60;;;;;;20885885;28;81876;-71
2021/09/22 03:15:12;;;;;;;3.53;0.75;;;17.00;53.00;;;;;;20883954;27;80950;-72
2021/09/22 03:25:16;;;;;;;1.88;0.30;;;16.90;53.40;;;;;;20884334;28;80614;-72
2021/09/22 03:35:18;;;;;;;2.83;0.60;;;16.90;53.80;;;;;;20867207;28;81789;-71
2021/09/22 03:45:21;;;;;;;;;;;16.70;55.10;;;;;;20867767;28;80876;-71
2021/09/22 03:55:25;;;;;;;3.40;0.40;;;16.70;54.90;;;;;;20906054;28;80614;-71
2021/09/22 04:05:29;;;;;;;1.67;0.38;;;16.50;55.00;;;;;;20882780;28;79796;-70
2021/09/22 04:15:34;;;;;;;3.42;0.65;;;16.50;55.00;;;;;;20880781;27;79931;-71
2021/09/22 04:25:38;;;;;;;1.83;0.40;;;16.50;55.20;;;;;;20874202;28;80827;-70
2021/09/22 04:35:40;;;;;;;1.20;0.68;;;16.50;55.20;;;;;;20895040;28;80000;-71
2021/09/22 04:45:45;;;;;;;3.50;0.70;;;16.50;55.40;;;;;;20894801;28;80757;-71
2021/09/22 04:55:49;;;;;;;2.17;0.75;;;16.70;55.10;;;;;;20894346;28;81079;-72
2021/09/22 05:05:51;;;;;;;2.47;0.55;;;16.70;55.00;;;;;;20875799;28;80671;-72
2021/09/22 05:15:54;;;;;;;2.47;0.60;;;16.60;55.20;;;;;;20874875;27;80665;-70
2021/09/22 05:25:56;;;;;;;4.38;0.75;;;16.50;55.50;;;;;;20892794;28;82345;-70
2021/09/22 05:36:00;;;;;;;1.73;0.60;;;16.50;56.70;;;;;;20863105;27;81808;-72
2021/09/22 05:46:02;;;;;;;1.42;0.60;;;16.40;56.60;;;;;;20876654;28;81617;-71
2021/09/22 05:56:09;;;;;;;2.03;0.60;;;16.50;56.30;;;;;;20860011;28;82069;-72
2021/09/22 06:06:10;;;;;;;3.30;0.60;;;16.40;56.40;;;;;;20877012;28;81390;-70
2021/09/22 06:16:13;;;;;;;2.13;0.77;;;16.40;56.70;;;;;;20863362;28;80951;-80
2021/09/22 06:26:16;;;;;;;3.30;0.87;;;16.40;56.80;;;;;;20858351;28;81516;-82
2021/09/22 06:36:20;;;;;;;2.83;0.80;;;16.30;57.10;;;;;;20858432;28;81276;-76
2021/09/22 06:46:23;;;;;;;5.30;1.00;;;16.40;56.80;;;;;;20854573;27;82383;-80
2021/09/22 06:56:30;;;;;;;2.45;0.88;;;16.40;56.50;;;;;;20874281;28;81817;-76
2021/09/22 07:06:31;;;;;;;3.72;0.90;;;16.50;56.20;;;;;;20855390;28;81887;-63
2021/09/22 07:16:34;;;;;;;4.07;0.77;;;16.60;56.10;;;;;;20865967;28;82225;-64
2021/09/22 07:26:36;;;;;;;2.88;0.85;;;16.70;55.80;;;;;;20849833;28;82363;-64
2021/09/22 07:36:39;;;;;;;2.23;0.80;;;17.00;55.20;;;;;;20872180;28;81845;-65
2021/09/22 07:46:42;;;;;;;3.78;1.23;;;17.20;54.80;;;;;;20873735;28;81716;-64
2021/09/22 07:56:45;;;;;;;4.63;1.10;;;17.40;54.60;;;;;;20861180;27;81742;-63
2021/09/22 08:06:48;;;;;;;2.43;1.27;;;17.30;54.60;;;;;;20886682;28;81834;-63
2021/09/22 08:16:50;;;;;;;;;;;17.30;55.10;;;;;;20885202;28;82705;-64
2021/09/22 08:26:55;;;;;;;4.90;0.90;;;17.30;54.40;;;;;;20902579;28;81242;-63
2021/09/22 08:36:59;;;;;;;5.30;1.80;;;17.10;54.70;;;;;;20885152;28;81449;-67
2021/09/22 08:47:01;;;;;;;4.07;1.40;;;17.40;57.30;;;;;;20884019;28;81688;-64
2021/09/22 08:57:05;;;;;;;2.25;1.00;;;17.70;57.60;;;;;;20881550;28;81859;-64
2021/09/22 09:07:09;;;;;;;2.60;1.13;;;18.10;57.10;;;;;;20882621;27;81319;-64
2021/09/22 09:17:19;;;;;;;2.70;1.02;;;18.20;58.10;;;;;;20882991;28;81758;-64
2021/09/22 09:27:24;;;;;;;2.53;1.00;;;18.10;57.80;;;;;;20878950;28;81914;-65
2021/09/22 09:37:38;;;;;;;4.25;1.10;;;19.10;56.40;;;;;;20876528;28;81177;-64
2021/09/22 09:47:41;;;;;;;1.97;0.90;;;19.50;55.30;;;;;;20858731;28;81483;-66
2021/09/22 09:57:53;;;;;;;4.47;1.50;;;18.90;56.60;;;;;;20858918;28;81566;-65
2021/09/22 10:07:55;;;;;;;3.38;1.30;;;18.80;56.40;;;;;;20874974;28;80543;-65
2021/09/22 10:17:57;;;;;;;4.40;1.63;;;19.00;57.80;;;;;;20875692;27;82002;-64
2021/09/22 10:28:00;;;;;;;3.30;1.20;;;18.90;58.50;;;;;;20850581;28;81309;-65
2021/09/22 10:38:28;;;;;;;3.08;1.10;;;18.60;59.60;;;;;;20849795;28;81163;-65
2021/09/22 10:48:33;;;;;;;3.58;1.30;;;18.60;59.80;;;;;;20876636;28;81800;-63
2021/09/22 10:58:52;;;;;;;3.58;1.38;;;19.10;59.80;;;;;;20875642;28;80955;-64
2021/09/22 11:09:09;;;;;;;3.90;1.60;;;21.40;54.10;;;;;;20874694;28;81790;-67
2021/09/22 11:19:13;;;;;;;4.95;1.40;;;25.40;43.60;;;;;;20874860;28;82659;-64
2021/09/22 11:29:38;;;;;;;4.78;1.40;;;22.50;49.10;;;;;;20876659;27;82018;-65
2021/09/22 11:39:42;;;;;;;3.55;1.30;;;26.20;40.20;;;;;;20898099;28;80557;-64
2021/09/22 11:49:45;;;;;;;6.93;1.10;;;23.30;46.70;;;;;;20880013;28;81656;-64
2021/09/22 11:59:47;;;;;;;2.25;1.08;;;22.40;48.50;;;;;;20881542;28;82055;-64
2021/09/22 12:09:50;;;;;;;3.95;1.17;;;23.00;46.60;;;;;;20881492;28;82020;-64
2021/09/22 12:19:53;;;;;;;2.55;1.00;;;24.70;44.30;;;;;;20898804;28;82416;-63
2021/09/22 12:30:07;;;;;;;2.38;1.00;;;29.20;34.90;;;;;;20879198;28;81943;-62
2021/09/22 12:40:14;;;;;;;2.65;1.00;;;30.20;32.30;;;;;;20892772;27;82016;-65
2021/09/22 12:50:20;;;;;;;2.38;0.90;;;27.40;36.50;;;;;;20885483;28;82307;-64
2021/09/22 13:00:37;;;;;;;2.75;1.00;;;28.80;33.80;;;;;;20883292;28;81982;-65
2021/09/22 13:10:59;;;;;;;1.83;0.70;;;31.40;30.30;;;;;;20881844;28;81277;-63
2021/09/22 13:21:02;;;;;;;5.32;0.80;;;30.40;29.80;;;;;;20887076;28;81136;-64
2021/09/22 13:31:05;;;;;;;1.23;0.30;;;28.90;31.50;;;;;;20891985;28;80714;-64
2021/09/22 13:41:11;;;;;;;2.13;0.30;;;29.00;32.20;;;;;;20891954;28;79962;-66
2021/09/22 13:51:16;;;;;;;3.47;0.30;;;30.90;29.60;;;;;;20891208;27;80793;-65
2021/09/22 14:01:18;;;;;;;3.40;0.75;;;32.20;29.10;;;;;;20891632;28;80636;-66
2021/09/22 14:11:20;;;;;;;1.13;0.40;;;34.20;26.40;;;;;;20892393;28;81886;-66
2021/09/22 14:21:23;;;;;;;1.73;0.85;;;37.00;24.50;;;;;;20890730;28;81821;-66
2021/09/22 14:31:29;;;;;;;1.77;0.80;;;38.30;23.10;;;;;;20872904;28;81833;-67
2021/09/22 14:41:31;;;;;;;2.88;0.80;;;43.50;19.00;;;;;;20871464;28;80747;-65
2021/09/22 14:51:33;;;;;;;2.17;0.90;;;38.30;23.10;;;;;;20888877;28;81087;-67
2021/09/22 15:01:35;;;;;;;3.25;0.85;;;37.60;23.20;;;;;;20887355;28;81039;-66
2021/09/22 15:11:37;;;;;;;4.68;1.83;;;37.60;23.20;;;;;;20886973;27;81741;-66
2021/09/22 15:21:38;;;;;;;2.15;1.02;;;34.90;25.60;;;;;;20886878;28;80544;-69
2021/09/22 15:31:41;;;;;;;3.95;1.50;;;33.30;27.90;;;;;;20886381;28;80751;-64
2021/09/22 15:41:42;;;;;;;3.38;1.50;;;35.40;24.80;;;;;;20867970;28;81183;-67
2021/09/22 15:51:43;;;;;;;3.30;1.38;;;40.40;20.30;;;;;;20886205;28;81539;-64
2021/09/22 16:01:46;;;;;;;2.65;0.95;;;37.90;22.50;;;;;;20885019;28;81294;-64
2021/09/22 16:11:47;;;;;;;9.43;3.30;;;36.40;23.60;;;;;;20866643;28;80704;-63
2021/09/22 16:21:50;;;;;;;3.20;1.38;;;31.60;29.10;;;;;;20893862;27;81775;-62
2021/09/22 16:31:52;;;;;;;3.50;1.20;;;29.90;30.70;;;;;;20879569;28;80806;-61
2021/09/22 16:41:54;;;;;;;4.72;1.00;;;28.50;32.80;;;;;;20879225;28;81942;-64
2021/09/22 16:51:57;;;;;;;3.20;0.80;;;27.80;33.70;;;;;;20896487;28;80770;-64
2021/09/22 17:01:58;;;;;;;2.30;1.00;;;26.70;36.10;;;;;;20894205;27;81786;-63
2021/09/22 17:12:01;;;;;;;4.95;1.70;;;26.20;36.70;;;;;;20893495;27;81831;-62
2021/09/22 17:22:04;;;;;;;4.65;1.17;;;25.60;38.30;;;;;;20873069;27;80727;-65
2021/09/22 17:32:06;;;;;;;4.78;1.10;;;25.20;38.40;;;;;;20892252;27;79834;-63
2021/09/22 17:42:08;;;;;;;1.77;0.90;;;24.80;39.00;;;;;;20893277;28;81836;-73
2021/09/22 17:52:12;;;;;;;2.60;0.90;;;24.50;39.20;;;;;;20891053;27;81035;-74
2021/09/22 18:02:16;;;;;;;2.42;1.15;;;24.20;39.90;;;;;;20872566;28;80709;-72
2021/09/22 18:12:19;;;;;;;2.67;1.00;;;23.90;40.30;;;;;;20892902;27;81678;-72
2021/09/22 18:22:24;;;;;;;3.33;1.60;;;23.70;40.30;;;;;;20879907;28;80174;-73
2021/09/22 18:32:26;;;;;;;3.85;1.52;;;23.40;41.50;;;;;;20889345;27;81260;-74
2021/09/22 18:42:28;;;;;;;6.60;1.73;;;23.20;41.80;;;;;;20871274;27;81989;-72
2021/09/22 18:52:29;;;;;;;5.15;2.05;;;23.10;44.10;;;;;;20887729;27;81728;-74
2021/09/22 19:02:32;;;;;;;4.70;1.88;;;22.80;46.10;;;;;;20887205;28;80837;-75
2021/09/22 19:12:34;;;;;;;7.55;1.73;;;22.70;44.30;;;;;;20869367;28;80359;-75
2021/09/22 19:22:36;;;;;;;;;;;22.80;43.50;;;;;;20870371;27;79945;-73
2021/09/22 19:32:38;;;;;;;7.13;2.17;;;22.60;43.70;;;;;;20891256;28;83469;-75
2021/09/22 19:42:40;;;;;;;5.25;1.65;;;22.40;44.50;;;;;;20886446;28;80073;-76
2021/09/22 19:52:42;;;;;;;2.42;1.02;;;22.30;45.10;;;;;;20891164;28;80721;-76
2021/09/22 20:02:44;;;;;;;4.03;1.13;;;22.10;45.20;;;;;;20880872;28;81140;-74
2021/09/22 20:12:49;;;;;;;3.03;0.77;;;22.00;45.50;;;;;;20879445;27;81089;-73
2021/09/22 20:22:53;;;;;;;1.90;0.90;;;21.70;46.50;;;;;;20898548;28;80015;-75
2021/09/22 20:32:54;;;;;;;;;;;21.40;48.70;;;;;;20897637;28;79944;-76
2021/09/22 20:42:57;;;;;;;1.57;0.73;;;21.20;49.30;;;;;;20901229;28;81672;-75
2021/09/22 20:52:59;;;;;;;2.33;0.70;;;20.90;50.20;;;;;;20877391;27;80051;-75
2021/09/22 21:03:01;;;;;;;5.75;1.30;;;20.90;51.50;;;;;;20875141;27;80790;-74
2021/09/22 21:13:04;;;;;;;1.60;0.60;;;20.90;52.20;;;;;;20895664;28;81106;-76
2021/09/22 21:23:05;;;;;;;2.83;0.85;;;20.60;53.30;;;;;;20896270;28;82154;-79
2021/09/22 21:33:08;;;;;;;2.00;0.60;;;20.50;54.00;;;;;;20893719;28;81908;-74
2021/09/22 21:43:10;;;;;;;1.77;0.52;;;20.40;54.50;;;;;;20892808;27;81889;-70
2021/09/22 21:53:14;;;;;;;1.50;0.63;;;20.30;55.30;;;;;;20892029;28;81881;-71
2021/09/22 22:03:16;;;;;;;2.72;0.70;;;20.00;56.00;;;;;;20873533;28;81745;-70
2021/09/22 22:13:17;;;;;;;2.70;0.70;;;19.80;57.10;;;;;;20890658;28;80963;-70
2021/09/22 22:23:20;;;;;;;2.35;0.80;;;19.50;58.30;;;;;;20890072;28;80525;-69
2021/09/22 22:33:22;;;;;;;2.87;0.97;;;19.20;59.70;;;;;;20890018;28;81919;-70
2021/09/22 22:43:26;;;;;;;1.67;0.83;;;18.90;61.00;;;;;;20889300;28;81873;-71
2021/09/22 22:53:27;;;;;;;3.28;1.20;;;18.80;62.00;;;;;;20887583;28;80932;-71
2021/09/22 23:03:31;;;;;;;3.42;1.17;;;18.70;62.20;;;;;;20886208;28;81172;-71
2021/09/22 23:13:32;;;;;;;1.87;0.73;;;18.60;62.60;;;;;;20886680;28;79868;-71
2021/09/22 23:23:36;;;;;;;7.60;1.45;;;18.60;62.70;;;;;;20867061;28;79719;-72
2021/09/22 23:33:39;;;;;;;4.53;1.13;;;18.50;63.10;;;;;;20883248;28;80687;-70
2021/09/22 23:43:42;;;;;;;1.50;0.80;;;18.40;63.60;;;;;;20865689;28;81028;-70
2021/09/22 23:53:44;;;;;;;5.20;0.93;;;18.30;64.10;;;;;;20882897;28;80011;-70
